Time;durP1;ratioP1;P1;durP2;ratioP2;P2;SDS_P1;SDS_P2;PMS_P1;PMS_P2;Temp;Humidity;BMP_temperature;BMP_pressure;BME280_temperature;BME280_humidity;BME280_pressure;Samples;Min_cycle;Max_cycle;Signal;HPM_P1;HPM_P2
2020/06/24 00:00:33;;;;;;;10.6;9.399999;;;;;;;12.96;81.65625;95823.88;;;;
2020/06/24 00:01:38;;;;;;;10.6;9.399999;;;;;;;12.96;81.65625;95823.88;;;;
2020/06/24 00:02:39;;;;;;;10.6;9.399999;;;;;;;12.96;81.65625;95823.88;;;;
2020/06/24 00:03:39;;;;;;;10.6;9.399999;;;;;;;12.96;81.65625;95823.88;;;;
2020/06/24 00:04:40;;;;;;;10.6;9.399999;;;;;;;12.96;81.65625;95823.88;;;;
2020/06/24 00:05:41;;;;;;;10.6;9.399999;;;;;;;12.96;81.65625;95823.88;;;;
2020/06/24 00:06:42;;;;;;;10.6;9.399999;;;;;;;12.96;81.65625;95823.88;;;;
2020/06/24 00:07:42;;;;;;;9.549999;8.6;;;;;;;12.99;82.30469;95821.24;;;;
2020/06/24 00:08:43;;;;;;;9.549999;8.6;;;;;;;12.99;82.30469;95821.24;;;;
2020/06/24 00:09:43;;;;;;;9.549999;8.6;;;;;;;12.99;82.30469;95821.24;;;;
2020/06/24 00:10:44;;;;;;;9.549999;8.6;;;;;;;12.99;82.30469;95821.24;;;;
2020/06/24 00:11:45;;;;;;;9.549999;8.6;;;;;;;12.99;82.30469;95821.24;;;;
2020/06/24 00:12:45;;;;;;;9.549999;8.6;;;;;;;12.99;82.30469;95821.24;;;;
2020/06/24 00:13:46;;;;;;;9.549999;8.6;;;;;;;12.99;82.30469;95821.24;;;;
2020/06/24 00:14:46;;;;;;;9.549999;8.6;;;;;;;12.99;82.30469;95821.24;;;;
2020/06/24 00:15:47;;;;;;;9.549999;8.6;;;;;;;12.99;82.30469;95821.24;;;;
2020/06/24 00:16:47;;;;;;;9.549999;8.6;;;;;;;12.99;82.30469;95821.24;;;;
2020/06/24 00:17:48;;;;;;;9.549999;8.6;;;;;;;12.99;82.30469;95821.24;;;;
2020/06/24 00:18:48;;;;;;;9.549999;8.6;;;;;;;12.99;82.30469;95821.24;;;;
2020/06/24 00:19:49;;;;;;;9.549999;8.6;;;;;;;12.99;82.30469;95821.24;;;;
2020/06/24 00:20:50;;;;;;;9.549999;8.6;;;;;;;12.99;82.30469;95821.24;;;;
2020/06/24 00:21:50;;;;;;;9.549999;8.6;;;;;;;12.99;82.30469;95821.24;;;;
2020/06/24 00:22:51;;;;;;;9.549999;8.6;;;;;;;12.99;82.30469;95821.24;;;;
2020/06/24 00:23:51;;;;;;;9.549999;8.6;;;;;;;12.99;82.30469;95821.24;;;;
2020/06/24 00:24:52;;;;;;;9.549999;8.6;;;;;;;12.99;82.30469;95821.24;;;;
2020/06/24 00:25:52;;;;;;;9.549999;8.6;;;;;;;12.99;82.30469;95821.24;;;;
2020/06/24 00:26:53;;;;;;;9.549999;8.6;;;;;;;12.99;82.30469;95821.24;;;;
2020/06/24 00:27:53;;;;;;;9.549999;8.6;;;;;;;12.99;82.30469;95821.24;;;;
2020/06/24 00:28:54;;;;;;;9.8;8.9;;;;;;;12.93;83.06641;95791.85;;;;
2020/06/24 00:29:54;;;;;;;9.8;8.9;;;;;;;12.93;83.06641;95791.85;;;;
2020/06/24 00:30:55;;;;;;;9.8;8.9;;;;;;;12.93;83.06641;95791.85;;;;
2020/06/24 00:31:55;;;;;;;9.8;8.9;;;;;;;12.93;83.06641;95791.85;;;;
2020/06/24 00:32:56;;;;;;;9.8;8.9;;;;;;;12.93;83.06641;95791.85;;;;
2020/06/24 00:33:56;;;;;;;9.8;8.9;;;;;;;12.93;83.06641;95791.85;;;;
2020/06/24 00:34:57;;;;;;;9.8;8.9;;;;;;;12.93;83.06641;95791.85;;;;
2020/06/24 00:35:57;;;;;;;9.8;8.9;;;;;;;12.93;83.06641;95791.85;;;;
2020/06/24 00:36:58;;;;;;;9.8;8.9;;;;;;;12.93;83.06641;95791.85;;;;
2020/06/24 00:37:59;;;;;;;9.8;8.9;;;;;;;12.93;83.06641;95791.85;;;;
2020/06/24 00:38:59;;;;;;;9.8;8.9;;;;;;;12.93;83.06641;95791.85;;;;
2020/06/24 00:40:00;;;;;;;10.95;9.849999;;;;;;;12.75;83.80469;95787.92;;;;
2020/06/24 00:41:01;;;;;;;10.95;9.849999;;;;;;;12.75;83.80469;95787.92;;;;
2020/06/24 00:42:02;;;;;;;10.95;9.849999;;;;;;;12.75;83.80469;95787.92;;;;
2020/06/24 00:43:03;;;;;;;10.95;9.849999;;;;;;;12.75;83.80469;95787.92;;;;
2020/06/24 00:44:05;;;;;;;10.95;9.849999;;;;;;;12.75;83.80469;95787.92;;;;
2020/06/24 00:45:06;;;;;;;10.95;9.849999;;;;;;;12.75;83.80469;95787.92;;;;
2020/06/24 00:46:07;;;;;;;10.95;9.849999;;;;;;;12.75;83.80469;95787.92;;;;
2020/06/24 00:47:08;;;;;;;10.95;9.849999;;;;;;;12.75;83.80469;95787.92;;;;
2020/06/24 00:48:09;;;;;;;10.95;9.849999;;;;;;;12.75;83.80469;95787.92;;;;
2020/06/24 00:49:10;;;;;;;10.95;9.849999;;;;;;;12.75;83.80469;95787.92;;;;
2020/06/24 00:50:11;;;;;;;10.4;9.3;;;;;;;12.67;84.68945;95788.78;;;;
2020/06/24 00:51:17;;;;;;;10.4;9.3;;;;;;;12.67;84.68945;95788.78;;;;
2020/06/24 00:52:17;;;;;;;10.4;9.3;;;;;;;12.67;84.68945;95788.78;;;;
2020/06/24 00:53:18;;;;;;;10.4;9.3;;;;;;;12.67;84.68945;95788.78;;;;
2020/06/24 00:54:19;;;;;;;10.4;9.3;;;;;;;12.67;84.68945;95788.78;;;;
2020/06/24 00:55:19;;;;;;;10.4;9.3;;;;;;;12.67;84.68945;95788.78;;;;
2020/06/24 00:56:20;;;;;;;10.4;9.3;;;;;;;12.67;84.68945;95788.78;;;;
2020/06/24 00:57:20;;;;;;;10.4;9.3;;;;;;;12.67;84.68945;95788.78;;;;
2020/06/24 00:58:21;;;;;;;10.4;9.3;;;;;;;12.67;84.68945;95788.78;;;;
2020/06/24 00:59:21;;;;;;;10.4;9.3;;;;;;;12.67;84.68945;95788.78;;;;
2020/06/24 01:00:22;;;;;;;10.6;9.5;;;;;;;12.5;85.24707;95781.36;;;;
2020/06/24 01:01:25;;;;;;;10.6;9.5;;;;;;;12.5;85.24707;95781.36;;;;
2020/06/24 01:02:25;;;;;;;10.6;9.5;;;;;;;12.5;85.24707;95781.36;;;;
2020/06/24 01:03:25;;;;;;;10.6;9.5;;;;;;;12.5;85.24707;95781.36;;;;
2020/06/24 01:04:26;;;;;;;10.6;9.5;;;;;;;12.5;85.24707;95781.36;;;;
2020/06/24 01:05:26;;;;;;;10.6;9.5;;;;;;;12.5;85.24707;95781.36;;;;
2020/06/24 01:06:27;;;;;;;10.6;9.5;;;;;;;12.5;85.24707;95781.36;;;;
2020/06/24 01:07:28;;;;;;;10.6;9.5;;;;;;;12.5;85.24707;95781.36;;;;
2020/06/24 01:08:28;;;;;;;10.6;9.5;;;;;;;12.5;85.24707;95781.36;;;;
2020/06/24 01:09:29;;;;;;;10.6;9.5;;;;;;;12.5;85.24707;95781.36;;;;
2020/06/24 01:10:29;;;;;;;10.6;9.5;;;;;;;12.5;85.24707;95781.36;;;;
2020/06/24 01:11:30;;;;;;;10.25;9.299998;;;;;;;12.4;85.9668;95787.49;;;;
2020/06/24 01:12:31;;;;;;;10.25;9.299998;;;;;;;12.4;85.9668;95787.49;;;;
2020/06/24 01:13:31;;;;;;;10.25;9.299998;;;;;;;12.4;85.9668;95787.49;;;;
2020/06/24 01:14:32;;;;;;;10.25;9.299998;;;;;;;12.4;85.9668;95787.49;;;;
2020/06/24 01:15:32;;;;;;;10.25;9.299998;;;;;;;12.4;85.9668;95787.49;;;;
2020/06/24 01:16:34;;;;;;;10.25;9.299998;;;;;;;12.4;85.9668;95787.49;;;;
2020/06/24 01:17:34;;;;;;;10.25;9.299998;;;;;;;12.4;85.9668;95787.49;;;;
2020/06/24 01:18:34;;;;;;;10.25;9.299998;;;;;;;12.4;85.9668;95787.49;;;;
2020/06/24 01:19:35;;;;;;;10.25;9.299998;;;;;;;12.4;85.9668;95787.49;;;;
2020/06/24 01:20:35;;;;;;;10.25;9.299998;;;;;;;12.4;85.9668;95787.49;;;;
2020/06/24 01:21:36;;;;;;;10.05;9.099999;;;;;;;12.23;86.56445;95783.43;;;;
2020/06/24 01:22:37;;;;;;;10.05;9.099999;;;;;;;12.23;86.56445;95783.43;;;;
2020/06/24 01:23:37;;;;;;;10.05;9.099999;;;;;;;12.23;86.56445;95783.43;;;;
2020/06/24 01:24:38;;;;;;;10.05;9.099999;;;;;;;12.23;86.56445;95783.43;;;;
2020/06/24 01:25:38;;;;;;;10.05;9.099999;;;;;;;12.23;86.56445;95783.43;;;;
2020/06/24 01:26:39;;;;;;;10.05;9.099999;;;;;;;12.23;86.56445;95783.43;;;;
2020/06/24 01:27:40;;;;;;;10.05;9.099999;;;;;;;12.23;86.56445;95783.43;;;;
2020/06/24 01:28:41;;;;;;;10.05;9.099999;;;;;;;12.23;86.56445;95783.43;;;;
2020/06/24 01:29:42;;;;;;;10.05;9.099999;;;;;;;12.23;86.56445;95783.43;;;;
2020/06/24 01:30:43;;;;;;;10.05;9.099999;;;;;;;12.23;86.56445;95783.43;;;;
2020/06/24 01:31:44;;;;;;;10.05;9.099999;;;;;;;12.23;86.56445;95783.43;;;;
2020/06/24 01:32:44;;;;;;;10.45;9.35;;;;;;;12.13;87.20801;95775.98;;;;
2020/06/24 01:33:45;;;;;;;10.45;9.35;;;;;;;12.13;87.20801;95775.98;;;;
2020/06/24 01:34:45;;;;;;;10.45;9.35;;;;;;;12.13;87.20801;95775.98;;;;
2020/06/24 01:35:46;;;;;;;10.45;9.35;;;;;;;12.13;87.20801;95775.98;;;;
2020/06/24 01:36:46;;;;;;;10.45;9.35;;;;;;;12.13;87.20801;95775.98;;;;
2020/06/24 01:37:47;;;;;;;10.45;9.35;;;;;;;12.13;87.20801;95775.98;;;;
2020/06/24 01:38:53;;;;;;;10.45;9.35;;;;;;;12.13;87.20801;95775.98;;;;
2020/06/24 01:39:54;;;;;;;10.45;9.35;;;;;;;12.13;87.20801;95775.98;;;;
2020/06/24 01:40:54;;;;;;;10.45;9.35;;;;;;;12.13;87.20801;95775.98;;;;
2020/06/24 01:41:54;;;;;;;10.45;9.35;;;;;;;12.13;87.20801;95775.98;;;;
2020/06/24 01:42:55;;;;;;;10.45;9.35;;;;;;;12.13;87.20801;95775.98;;;;
2020/06/24 01:43:56;;;;;;;10.45;9.35;;;;;;;12.13;87.20801;95775.98;;;;
2020/06/24 01:44:56;;;;;;;10.45;9.35;;;;;;;12.13;87.20801;95775.98;;;;
2020/06/24 01:45:57;;;;;;;10.45;9.35;;;;;;;12.13;87.20801;95775.98;;;;
2020/06/24 01:46:57;;;;;;;10.45;9.35;;;;;;;12.13;87.20801;95775.98;;;;
2020/06/24 01:47:57;;;;;;;10.45;9.35;;;;;;;12.13;87.20801;95775.98;;;;
2020/06/24 01:48:58;;;;;;;10.45;9.35;;;;;;;12.13;87.20801;95775.98;;;;
2020/06/24 01:49:59;;;;;;;10.45;9.35;;;;;;;12.13;87.20801;95775.98;;;;
2020/06/24 01:50:59;;;;;;;10.45;9.35;;;;;;;12.13;87.20801;95775.98;;;;
2020/06/24 01:52:00;;;;;;;10.45;9.35;;;;;;;12.13;87.20801;95775.98;;;;
2020/06/24 01:53:01;;;;;;;10.45;9.35;;;;;;;12.13;87.20801;95775.98;;;;
2020/06/24 01:54:01;;;;;;;10.3;9.199999;;;;;;;11.91;87.79492;95756.76;;;;
2020/06/24 01:55:02;;;;;;;10.3;9.199999;;;;;;;11.91;87.79492;95756.76;;;;
2020/06/24 01:56:03;;;;;;;10.3;9.199999;;;;;;;11.91;87.79492;95756.76;;;;
2020/06/24 01:57:04;;;;;;;10.3;9.199999;;;;;;;11.91;87.79492;95756.76;;;;
2020/06/24 01:58:04;;;;;;;10.3;9.199999;;;;;;;11.91;87.79492;95756.76;;;;
2020/06/24 01:59:05;;;;;;;10.3;9.199999;;;;;;;11.91;87.79492;95756.76;;;;
2020/06/24 02:00:05;;;;;;;10.3;9.199999;;;;;;;11.91;87.79492;95756.76;;;;
2020/06/24 02:01:09;;;;;;;10.3;9.199999;;;;;;;11.91;87.79492;95756.76;;;;
2020/06/24 02:02:10;;;;;;;10.3;9.199999;;;;;;;11.91;87.79492;95756.76;;;;
2020/06/24 02:03:10;;;;;;;10.3;9.199999;;;;;;;11.91;87.79492;95756.76;;;;
2020/06/24 02:04:11;;;;;;;10.3;9.199999;;;;;;;11.91;87.79492;95756.76;;;;
2020/06/24 02:05:11;;;;;;;10.3;9.299998;;;;;;;11.7;88.41602;95753.66;;;;
2020/06/24 02:06:13;;;;;;;10.3;9.299998;;;;;;;11.7;88.41602;95753.66;;;;
2020/06/24 02:07:13;;;;;;;10.3;9.299998;;;;;;;11.7;88.41602;95753.66;;;;
2020/06/24 02:08:14;;;;;;;10.3;9.299998;;;;;;;11.7;88.41602;95753.66;;;;
2020/06/24 02:09:15;;;;;;;10.3;9.299998;;;;;;;11.7;88.41602;95753.66;;;;
2020/06/24 02:10:15;;;;;;;10.3;9.299998;;;;;;;11.7;88.41602;95753.66;;;;
2020/06/24 02:11:18;;;;;;;10.3;9.299998;;;;;;;11.7;88.41602;95753.66;;;;
2020/06/24 02:12:18;;;;;;;10.3;9.299998;;;;;;;11.7;88.41602;95753.66;;;;
2020/06/24 02:13:19;;;;;;;10.3;9.299998;;;;;;;11.7;88.41602;95753.66;;;;
2020/06/24 02:14:19;;;;;;;10.3;9.299998;;;;;;;11.7;88.41602;95753.66;;;;
2020/06/24 02:15:20;;;;;;;10.35;9.450002;;;;;;;11.59;88.94922;95754;;;;
2020/06/24 02:16:20;;;;;;;10.35;9.450002;;;;;;;11.59;88.94922;95754;;;;
2020/06/24 02:17:21;;;;;;;10.35;9.450002;;;;;;;11.59;88.94922;95754;;;;
2020/06/24 02:18:21;;;;;;;10.35;9.450002;;;;;;;11.59;88.94922;95754;;;;
2020/06/24 02:19:22;;;;;;;10.35;9.450002;;;;;;;11.59;88.94922;95754;;;;
2020/06/24 02:20:22;;;;;;;10.35;9.450002;;;;;;;11.59;88.94922;95754;;;;
2020/06/24 02:21:23;;;;;;;10.35;9.450002;;;;;;;11.59;88.94922;95754;;;;
2020/06/24 02:22:23;;;;;;;10.35;9.450002;;;;;;;11.59;88.94922;95754;;;;
2020/06/24 02:23:24;;;;;;;10.35;9.450002;;;;;;;11.59;88.94922;95754;;;;
2020/06/24 02:24:25;;;;;;;10.35;9.450002;;;;;;;11.59;88.94922;95754;;;;
2020/06/24 02:25:25;;;;;;;10.35;9.450002;;;;;;;11.59;88.94922;95754;;;;
2020/06/24 02:26:26;;;;;;;9.9;9;;;;;;;11.43;89.38574;95744.26;;;;
2020/06/24 02:27:26;;;;;;;9.9;9;;;;;;;11.43;89.38574;95744.26;;;;
2020/06/24 02:28:27;;;;;;;9.9;9;;;;;;;11.43;89.38574;95744.26;;;;
2020/06/24 02:29:27;;;;;;;9.9;9;;;;;;;11.43;89.38574;95744.26;;;;
2020/06/24 02:30:27;;;;;;;9.9;9;;;;;;;11.43;89.38574;95744.26;;;;
2020/06/24 02:31:28;;;;;;;9.9;9;;;;;;;11.43;89.38574;95744.26;;;;
2020/06/24 02:32:28;;;;;;;9.9;9;;;;;;;11.43;89.38574;95744.26;;;;
2020/06/24 02:33:29;;;;;;;9.9;9;;;;;;;11.43;89.38574;95744.26;;;;
2020/06/24 02:34:29;;;;;;;9.9;9;;;;;;;11.43;89.38574;95744.26;;;;
2020/06/24 02:35:30;;;;;;;9.9;9;;;;;;;11.43;89.38574;95744.26;;;;
2020/06/24 02:36:30;;;;;;;10.15;9.1;;;;;;;11.38;89.83301;95733.31;;;;
2020/06/24 02:37:31;;;;;;;10.15;9.1;;;;;;;11.38;89.83301;95733.31;;;;
2020/06/24 02:38:32;;;;;;;10.15;9.1;;;;;;;11.38;89.83301;95733.31;;;;
2020/06/24 02:39:32;;;;;;;10.15;9.1;;;;;;;11.38;89.83301;95733.31;;;;
2020/06/24 02:40:32;;;;;;;10.15;9.1;;;;;;;11.38;89.83301;95733.31;;;;
2020/06/24 02:41:33;;;;;;;10.15;9.1;;;;;;;11.38;89.83301;95733.31;;;;
2020/06/24 02:42:34;;;;;;;10.15;9.1;;;;;;;11.38;89.83301;95733.31;;;;
2020/06/24 02:43:34;;;;;;;10.15;9.1;;;;;;;11.38;89.83301;95733.31;;;;
2020/06/24 02:44:35;;;;;;;10.15;9.1;;;;;;;11.38;89.83301;95733.31;;;;
2020/06/24 02:45:39;;;;;;;10.15;9.1;;;;;;;11.38;89.83301;95733.31;;;;
2020/06/24 02:46:42;;;;;;;10.15;9.1;;;;;;;11.38;89.83301;95733.31;;;;
2020/06/24 02:47:42;;;;;;;10.45;9.349999;;;;;;;11.26;90.0127;95720.29;;;;
2020/06/24 02:48:43;;;;;;;10.45;9.349999;;;;;;;11.26;90.0127;95720.29;;;;
2020/06/24 02:49:44;;;;;;;10.45;9.349999;;;;;;;11.26;90.0127;95720.29;;;;
2020/06/24 02:50:45;;;;;;;10.45;9.349999;;;;;;;11.26;90.0127;95720.29;;;;
2020/06/24 02:51:45;;;;;;;10.45;9.349999;;;;;;;11.26;90.0127;95720.29;;;;
2020/06/24 02:52:45;;;;;;;10.45;9.349999;;;;;;;11.26;90.0127;95720.29;;;;
2020/06/24 02:53:47;;;;;;;10.45;9.349999;;;;;;;11.26;90.0127;95720.29;;;;
2020/06/24 02:54:47;;;;;;;10.45;9.349999;;;;;;;11.26;90.0127;95720.29;;;;
2020/06/24 02:55:48;;;;;;;10.45;9.349999;;;;;;;11.26;90.0127;95720.29;;;;
2020/06/24 02:56:48;;;;;;;10.45;9.349999;;;;;;;11.26;90.0127;95720.29;;;;
2020/06/24 02:57:49;;;;;;;10.25;9.25;;;;;;;11.17;90.36719;95725.3;;;;
2020/06/24 02:58:49;;;;;;;10.25;9.25;;;;;;;11.17;90.36719;95725.3;;;;
2020/06/24 02:59:50;;;;;;;10.25;9.25;;;;;;;11.17;90.36719;95725.3;;;;
2020/06/24 03:00:50;;;;;;;10.25;9.25;;;;;;;11.17;90.36719;95725.3;;;;
2020/06/24 03:01:52;;;;;;;10.25;9.25;;;;;;;11.17;90.36719;95725.3;;;;
2020/06/24 03:02:52;;;;;;;10.25;9.25;;;;;;;11.17;90.36719;95725.3;;;;
2020/06/24 03:03:53;;;;;;;10.25;9.25;;;;;;;11.17;90.36719;95725.3;;;;
2020/06/24 03:04:53;;;;;;;10.25;9.25;;;;;;;11.17;90.36719;95725.3;;;;
2020/06/24 03:05:53;;;;;;;10.25;9.25;;;;;;;11.17;90.36719;95725.3;;;;
2020/06/24 03:06:54;;;;;;;10.25;9.25;;;;;;;11.17;90.36719;95725.3;;;;
2020/06/24 03:07:55;;;;;;;10.25;9.25;;;;;;;11.17;90.36719;95725.3;;;;
2020/06/24 03:08:56;;;;;;;10.4;9.4;;;;;;;10.99;90.66211;95725.61;;;;
2020/06/24 03:09:56;;;;;;;10.4;9.4;;;;;;;10.99;90.66211;95725.61;;;;
2020/06/24 03:10:57;;;;;;;10.4;9.4;;;;;;;10.99;90.66211;95725.61;;;;
2020/06/24 03:11:57;;;;;;;10.4;9.4;;;;;;;10.99;90.66211;95725.61;;;;
2020/06/24 03:12:58;;;;;;;10.4;9.4;;;;;;;10.99;90.66211;95725.61;;;;
2020/06/24 03:13:58;;;;;;;10.4;9.4;;;;;;;10.99;90.66211;95725.61;;;;
2020/06/24 03:14:59;;;;;;;10.4;9.4;;;;;;;10.99;90.66211;95725.61;;;;
2020/06/24 03:16:00;;;;;;;10.4;9.4;;;;;;;10.99;90.66211;95725.61;;;;
2020/06/24 03:17:01;;;;;;;10.4;9.4;;;;;;;10.99;90.66211;95725.61;;;;
2020/06/24 03:18:02;;;;;;;10.4;9.4;;;;;;;10.99;90.66211;95725.61;;;;
2020/06/24 03:19:03;;;;;;;10.85;9.75;;;;;;;10.92;90.92383;95725.81;;;;
2020/06/24 03:20:03;;;;;;;10.85;9.75;;;;;;;10.92;90.92383;95725.81;;;;
2020/06/24 03:21:05;;;;;;;10.85;9.75;;;;;;;10.92;90.92383;95725.81;;;;
2020/06/24 03:22:06;;;;;;;10.85;9.75;;;;;;;10.92;90.92383;95725.81;;;;
2020/06/24 03:23:06;;;;;;;10.85;9.75;;;;;;;10.92;90.92383;95725.81;;;;
2020/06/24 03:24:07;;;;;;;10.85;9.75;;;;;;;10.92;90.92383;95725.81;;;;
2020/06/24 03:25:07;;;;;;;10.85;9.75;;;;;;;10.92;90.92383;95725.81;;;;
2020/06/24 03:26:11;;;;;;;10.85;9.75;;;;;;;10.92;90.92383;95725.81;;;;
2020/06/24 03:27:12;;;;;;;10.85;9.75;;;;;;;10.92;90.92383;95725.81;;;;
2020/06/24 03:28:12;;;;;;;10.85;9.75;;;;;;;10.92;90.92383;95725.81;;;;
2020/06/24 03:29:13;;;;;;;10.45;9.450002;;;;;;;10.81;91.24121;95715.77;;;;
2020/06/24 03:30:13;;;;;;;10.45;9.450002;;;;;;;10.81;91.24121;95715.77;;;;
2020/06/24 03:31:15;;;;;;;10.45;9.450002;;;;;;;10.81;91.24121;95715.77;;;;
2020/06/24 03:32:16;;;;;;;10.45;9.450002;;;;;;;10.81;91.24121;95715.77;;;;
2020/06/24 03:33:16;;;;;;;10.45;9.450002;;;;;;;10.81;91.24121;95715.77;;;;
2020/06/24 03:34:17;;;;;;;10.45;9.450002;;;;;;;10.81;91.24121;95715.77;;;;
2020/06/24 03:35:18;;;;;;;10.45;9.450002;;;;;;;10.81;91.24121;95715.77;;;;
2020/06/24 03:36:18;;;;;;;10.45;9.450002;;;;;;;10.81;91.24121;95715.77;;;;
2020/06/24 03:37:19;;;;;;;10.45;9.450002;;;;;;;10.81;91.24121;95715.77;;;;
2020/06/24 03:38:20;;;;;;;10.45;9.450002;;;;;;;10.81;91.24121;95715.77;;;;
2020/06/24 03:39:20;;;;;;;10.45;9.450002;;;;;;;10.81;91.24121;95715.77;;;;
2020/06/24 03:40:20;;;;;;;10.7;9.700002;;;;;;;10.81;91.44336;95712.67;;;;
2020/06/24 03:41:21;;;;;;;10.7;9.700002;;;;;;;10.81;91.44336;95712.67;;;;
2020/06/24 03:42:21;;;;;;;10.7;9.700002;;;;;;;10.81;91.44336;95712.67;;;;
2020/06/24 03:43:22;;;;;;;10.7;9.700002;;;;;;;10.81;91.44336;95712.67;;;;
2020/06/24 03:44:22;;;;;;;10.7;9.700002;;;;;;;10.81;91.44336;95712.67;;;;
2020/06/24 03:45:23;;;;;;;10.7;9.700002;;;;;;;10.81;91.44336;95712.67;;;;
2020/06/24 03:46:27;;;;;;;10.7;9.700002;;;;;;;10.81;91.44336;95712.67;;;;
2020/06/24 03:47:28;;;;;;;10.7;9.700002;;;;;;;10.81;91.44336;95712.67;;;;
2020/06/24 03:48:28;;;;;;;10.7;9.700002;;;;;;;10.81;91.44336;95712.67;;;;
2020/06/24 03:49:29;;;;;;;10.7;9.700002;;;;;;;10.81;91.44336;95712.67;;;;
2020/06/24 03:50:29;;;;;;;11;10;;;;;;;10.77;91.71289;95710.54;;;;
2020/06/24 03:51:30;;;;;;;11;10;;;;;;;10.77;91.71289;95710.54;;;;
2020/06/24 03:52:30;;;;;;;11;10;;;;;;;10.77;91.71289;95710.54;;;;
2020/06/24 03:53:31;;;;;;;11;10;;;;;;;10.77;91.71289;95710.54;;;;
2020/06/24 03:54:31;;;;;;;11;10;;;;;;;10.77;91.71289;95710.54;;;;
2020/06/24 03:55:32;;;;;;;11;10;;;;;;;10.77;91.71289;95710.54;;;;
2020/06/24 03:56:32;;;;;;;11;10;;;;;;;10.77;91.71289;95710.54;;;;
2020/06/24 03:57:33;;;;;;;11;10;;;;;;;10.77;91.71289;95710.54;;;;
2020/06/24 03:58:33;;;;;;;11;10;;;;;;;10.77;91.71289;95710.54;;;;
2020/06/24 03:59:34;;;;;;;11;10;;;;;;;10.77;91.71289;95710.54;;;;
2020/06/24 04:00:34;;;;;;;11;10;;;;;;;10.77;91.71289;95710.54;;;;
2020/06/24 04:01:35;;;;;;;10.95;9.999998;;;;;;;10.85;91.85645;95705.33;;;;
2020/06/24 04:02:35;;;;;;;10.95;9.999998;;;;;;;10.85;91.85645;95705.33;;;;
2020/06/24 04:03:36;;;;;;;10.95;9.999998;;;;;;;10.85;91.85645;95705.33;;;;
2020/06/24 04:04:36;;;;;;;10.95;9.999998;;;;;;;10.85;91.85645;95705.33;;;;
2020/06/24 04:05:37;;;;;;;10.95;9.999998;;;;;;;10.85;91.85645;95705.33;;;;
2020/06/24 04:06:37;;;;;;;10.95;9.999998;;;;;;;10.85;91.85645;95705.33;;;;
2020/06/24 04:07:38;;;;;;;10.95;9.999998;;;;;;;10.85;91.85645;95705.33;;;;
2020/06/24 04:08:39;;;;;;;10.95;9.999998;;;;;;;10.85;91.85645;95705.33;;;;
2020/06/24 04:09:40;;;;;;;10.95;9.999998;;;;;;;10.85;91.85645;95705.33;;;;
2020/06/24 04:10:40;;;;;;;10.95;9.999998;;;;;;;10.85;91.85645;95705.33;;;;
2020/06/24 04:11:41;;;;;;;11.5;10.25;;;;;;;10.89;92.16406;95711;;;;
2020/06/24 04:12:41;;;;;;;11.5;10.25;;;;;;;10.89;92.16406;95711;;;;
2020/06/24 04:13:42;;;;;;;11.5;10.25;;;;;;;10.89;92.16406;95711;;;;
2020/06/24 04:14:43;;;;;;;11.5;10.25;;;;;;;10.89;92.16406;95711;;;;
2020/06/24 04:15:44;;;;;;;11.5;10.25;;;;;;;10.89;92.16406;95711;;;;
2020/06/24 04:16:44;;;;;;;11.5;10.25;;;;;;;10.89;92.16406;95711;;;;
2020/06/24 04:17:45;;;;;;;11.5;10.25;;;;;;;10.89;92.16406;95711;;;;
2020/06/24 04:18:46;;;;;;;11.5;10.25;;;;;;;10.89;92.16406;95711;;;;
2020/06/24 04:19:46;;;;;;;11.5;10.25;;;;;;;10.89;92.16406;95711;;;;
2020/06/24 04:20:47;;;;;;;11.5;10.25;;;;;;;10.89;92.16406;95711;;;;
2020/06/24 04:21:47;;;;;;;11.5;10.25;;;;;;;10.89;92.16406;95711;;;;
2020/06/24 04:22:48;;;;;;;10.95;9.8;;;;;;;11.04;92.34277;95706.03;;;;
2020/06/24 04:23:49;;;;;;;10.95;9.8;;;;;;;11.04;92.34277;95706.03;;;;
2020/06/24 04:24:50;;;;;;;10.95;9.8;;;;;;;11.04;92.34277;95706.03;;;;
2020/06/24 04:25:50;;;;;;;10.95;9.8;;;;;;;11.04;92.34277;95706.03;;;;
2020/06/24 04:26:51;;;;;;;10.95;9.8;;;;;;;11.04;92.34277;95706.03;;;;
2020/06/24 04:27:51;;;;;;;10.95;9.8;;;;;;;11.04;92.34277;95706.03;;;;
2020/06/24 04:28:52;;;;;;;10.95;9.8;;;;;;;11.04;92.34277;95706.03;;;;
2020/06/24 04:29:52;;;;;;;10.95;9.8;;;;;;;11.04;92.34277;95706.03;;;;
2020/06/24 04:30:53;;;;;;;10.95;9.8;;;;;;;11.04;92.34277;95706.03;;;;
2020/06/24 04:31:55;;;;;;;10.95;9.8;;;;;;;11.04;92.34277;95706.03;;;;
2020/06/24 04:32:55;;;;;;;11.45;10.3;;;;;;;11.2;92.46387;95711.22;;;;
2020/06/24 04:33:56;;;;;;;11.45;10.3;;;;;;;11.2;92.46387;95711.22;;;;
2020/06/24 04:34:56;;;;;;;11.45;10.3;;;;;;;11.2;92.46387;95711.22;;;;
2020/06/24 04:35:56;;;;;;;11.45;10.3;;;;;;;11.2;92.46387;95711.22;;;;
2020/06/24 04:36:57;;;;;;;11.45;10.3;;;;;;;11.2;92.46387;95711.22;;;;
2020/06/24 04:37:57;;;;;;;11.45;10.3;;;;;;;11.2;92.46387;95711.22;;;;
2020/06/24 04:38:58;;;;;;;11.45;10.3;;;;;;;11.2;92.46387;95711.22;;;;
2020/06/24 04:39:58;;;;;;;11.45;10.3;;;;;;;11.2;92.46387;95711.22;;;;
2020/06/24 04:40:59;;;;;;;11.45;10.3;;;;;;;11.2;92.46387;95711.22;;;;
2020/06/24 04:42:00;;;;;;;11.45;10.3;;;;;;;11.2;92.46387;95711.22;;;;
2020/06/24 04:43:00;;;;;;;11.45;10.3;;;;;;;11.2;92.46387;95711.22;;;;
2020/06/24 04:44:01;;;;;;;10.6;9.65;;;;;;;11.51;92.56152;95717.29;;;;
2020/06/24 04:45:01;;;;;;;10.6;9.65;;;;;;;11.51;92.56152;95717.29;;;;
2020/06/24 04:46:04;;;;;;;10.6;9.65;;;;;;;11.51;92.56152;95717.29;;;;
2020/06/24 04:47:05;;;;;;;10.6;9.65;;;;;;;11.51;92.56152;95717.29;;;;
2020/06/24 04:48:05;;;;;;;10.6;9.65;;;;;;;11.51;92.56152;95717.29;;;;
2020/06/24 04:49:06;;;;;;;10.6;9.65;;;;;;;11.51;92.56152;95717.29;;;;
2020/06/24 04:50:06;;;;;;;10.6;9.65;;;;;;;11.51;92.56152;95717.29;;;;
2020/06/24 04:51:07;;;;;;;10.6;9.65;;;;;;;11.51;92.56152;95717.29;;;;
2020/06/24 04:52:07;;;;;;;10.6;9.65;;;;;;;11.51;92.56152;95717.29;;;;
2020/06/24 04:53:08;;;;;;;10.6;9.65;;;;;;;11.51;92.56152;95717.29;;;;
2020/06/24 04:54:08;;;;;;;10.45;9.550001;;;;;;;11.83;92.52051;95718.81;;;;
2020/06/24 04:55:09;;;;;;;10.45;9.550001;;;;;;;11.83;92.52051;95718.81;;;;
2020/06/24 04:56:09;;;;;;;10.45;9.550001;;;;;;;11.83;92.52051;95718.81;;;;
2020/06/24 04:57:10;;;;;;;10.45;9.550001;;;;;;;11.83;92.52051;95718.81;;;;
2020/06/24 04:58:10;;;;;;;10.45;9.550001;;;;;;;11.83;92.52051;95718.81;;;;
2020/06/24 04:59:11;;;;;;;10.45;9.550001;;;;;;;11.83;92.52051;95718.81;;;;
2020/06/24 05:00:11;;;;;;;10.45;9.550001;;;;;;;11.83;92.52051;95718.81;;;;
2020/06/24 05:01:11;;;;;;;10.45;9.550001;;;;;;;11.83;92.52051;95718.81;;;;
2020/06/24 05:02:12;;;;;;;10.45;9.550001;;;;;;;11.83;92.52051;95718.81;;;;
2020/06/24 05:03:13;;;;;;;10.45;9.550001;;;;;;;11.83;92.52051;95718.81;;;;
2020/06/24 05:04:13;;;;;;;10.45;9.550001;;;;;;;11.83;92.52051;95718.81;;;;
2020/06/24 05:05:14;;;;;;;10.6;9.5;;;;;;;12.26;92.45117;95717.55;;;;
2020/06/24 05:06:14;;;;;;;10.6;9.5;;;;;;;12.26;92.45117;95717.55;;;;
2020/06/24 05:07:15;;;;;;;10.6;9.5;;;;;;;12.26;92.45117;95717.55;;;;
2020/06/24 05:08:15;;;;;;;10.6;9.5;;;;;;;12.26;92.45117;95717.55;;;;
2020/06/24 05:09:16;;;;;;;10.6;9.5;;;;;;;12.26;92.45117;95717.55;;;;
2020/06/24 05:10:16;;;;;;;10.6;9.5;;;;;;;12.26;92.45117;95717.55;;;;
2020/06/24 05:11:17;;;;;;;10.6;9.5;;;;;;;12.26;92.45117;95717.55;;;;
2020/06/24 05:12:17;;;;;;;10.6;9.5;;;;;;;12.26;92.45117;95717.55;;;;
2020/06/24 05:13:18;;;;;;;10.6;9.5;;;;;;;12.26;92.45117;95717.55;;;;
2020/06/24 05:14:18;;;;;;;10.6;9.5;;;;;;;12.26;92.45117;95717.55;;;;
2020/06/24 05:15:19;;;;;;;14.35;10.45;;;;;;;12.71;92.11914;95707.74;;;;
2020/06/24 05:16:19;;;;;;;14.35;10.45;;;;;;;12.71;92.11914;95707.74;;;;
2020/06/24 05:17:20;;;;;;;14.35;10.45;;;;;;;12.71;92.11914;95707.74;;;;
2020/06/24 05:18:20;;;;;;;14.35;10.45;;;;;;;12.71;92.11914;95707.74;;;;
2020/06/24 05:19:21;;;;;;;14.35;10.45;;;;;;;12.71;92.11914;95707.74;;;;
2020/06/24 05:20:21;;;;;;;14.35;10.45;;;;;;;12.71;92.11914;95707.74;;;;
2020/06/24 05:21:22;;;;;;;14.35;10.45;;;;;;;12.71;92.11914;95707.74;;;;
2020/06/24 05:22:22;;;;;;;14.35;10.45;;;;;;;12.71;92.11914;95707.74;;;;
2020/06/24 05:23:23;;;;;;;14.35;10.45;;;;;;;12.71;92.11914;95707.74;;;;
2020/06/24 05:24:23;;;;;;;14.35;10.45;;;;;;;12.71;92.11914;95707.74;;;;
2020/06/24 05:25:24;;;;;;;14.35;10.45;;;;;;;12.71;92.11914;95707.74;;;;
2020/06/24 05:26:24;;;;;;;12.15;10.85;;;;;;;13.31;91.8252;95713.09;;;;
2020/06/24 05:27:25;;;;;;;12.15;10.85;;;;;;;13.31;91.8252;95713.09;;;;
2020/06/24 05:28:27;;;;;;;12.15;10.85;;;;;;;13.31;91.8252;95713.09;;;;
2020/06/24 05:29:44;;;;;;;12.15;10.85;;;;;;;13.31;91.8252;95713.09;;;;
2020/06/24 05:30:44;;;;;;;12.15;10.85;;;;;;;13.31;91.8252;95713.09;;;;
2020/06/24 05:31:45;;;;;;;12.15;10.85;;;;;;;13.31;91.8252;95713.09;;;;
2020/06/24 05:32:46;;;;;;;12.15;10.85;;;;;;;13.31;91.8252;95713.09;;;;
2020/06/24 05:33:46;;;;;;;12.15;10.85;;;;;;;13.31;91.8252;95713.09;;;;
2020/06/24 05:34:47;;;;;;;12.15;10.85;;;;;;;13.31;91.8252;95713.09;;;;
2020/06/24 05:35:48;;;;;;;12.15;10.85;;;;;;;13.31;91.8252;95713.09;;;;
2020/06/24 05:36:51;;;;;;;13.65;12.1;;;;;;;13.93;91.43945;95706.19;;;;